sensor_id;sensor_type;location;lat;lon;timestamp;pressure;altitude;pressure_sealevel;temperature
20103;BMP180;10210;52.284;9.892;2023-12-07T00:01:50;100641.00;;;6.60
20103;BMP180;10210;52.284;9.892;2023-12-07T00:04:17;100642.00;;;6.60
20103;BMP180;10210;52.284;9.892;2023-12-07T00:06:42;100631.00;;;6.60
20103;BMP180;10210;52.284;9.892;2023-12-07T00:09:08;100639.00;;;6.60
20103;BMP180;10210;52.284;9.892;2023-12-07T00:11:34;100647.00;;;6.60
20103;BMP180;10210;52.284;9.892;2023-12-07T00:13:59;100652.00;;;6.60
20103;BMP180;10210;52.284;9.892;2023-12-07T00:16:25;100645.00;;;6.60
20103;BMP180;10210;52.284;9.892;2023-12-07T00:18:51;100650.00;;;6.60
20103;BMP180;10210;52.284;9.892;2023-12-07T00:21:17;100646.00;;;6.70
20103;BMP180;10210;52.284;9.892;2023-12-07T00:23:42;100651.00;;;6.70
20103;BMP180;10210;52.284;9.892;2023-12-07T00:26:08;100655.00;;;6.70
20103;BMP180;10210;52.284;9.892;2023-12-07T00:28:34;100663.00;;;6.70
20103;BMP180;10210;52.284;9.892;2023-12-07T00:31:00;100666.00;;;6.70
20103;BMP180;10210;52.284;9.892;2023-12-07T00:33:25;100664.00;;;6.60
20103;BMP180;10210;52.284;9.892;2023-12-07T00:35:51;100670.00;;;6.60
20103;BMP180;10210;52.284;9.892;2023-12-07T00:38:17;100668.00;;;6.60
20103;BMP180;10210;52.284;9.892;2023-12-07T00:40:43;100670.00;;;6.60
20103;BMP180;10210;52.284;9.892;2023-12-07T00:43:08;100673.00;;;6.60
20103;BMP180;10210;52.284;9.892;2023-12-07T00:45:34;100664.00;;;6.60
20103;BMP180;10210;52.284;9.892;2023-12-07T00:47:59;100680.00;;;6.60
20103;BMP180;10210;52.284;9.892;2023-12-07T00:50:25;100668.00;;;6.60
20103;BMP180;10210;52.284;9.892;2023-12-07T00:52:51;100669.00;;;6.60
20103;BMP180;10210;52.284;9.892;2023-12-07T00:55:17;100677.00;;;6.60
20103;BMP180;10210;52.284;9.892;2023-12-07T00:57:45;100677.00;;;6.60
20103;BMP180;10210;52.284;9.892;2023-12-07T01:00:10;100688.00;;;6.70
20103;BMP180;10210;52.284;9.892;2023-12-07T01:02:36;100682.00;;;6.70
20103;BMP180;10210;52.284;9.892;2023-12-07T01:05:02;100686.00;;;6.70
20103;BMP180;10210;52.284;9.892;2023-12-07T01:07:28;100692.00;;;6.70
20103;BMP180;10210;52.284;9.892;2023-12-07T01:09:54;100691.00;;;6.70
20103;BMP180;10210;52.284;9.892;2023-12-07T01:12:19;100682.00;;;6.70
20103;BMP180;10210;52.284;9.892;2023-12-07T01:14:45;100698.00;;;6.70
20103;BMP180;10210;52.284;9.892;2023-12-07T01:17:11;100701.00;;;6.70
20103;BMP180;10210;52.284;9.892;2023-12-07T01:19:36;100707.00;;;6.70
20103;BMP180;10210;52.284;9.892;2023-12-07T01:22:02;100702.00;;;6.70
20103;BMP180;10210;52.284;9.892;2023-12-07T01:24:28;100702.00;;;6.70
20103;BMP180;10210;52.284;9.892;2023-12-07T01:26:55;100713.00;;;6.70
20103;BMP180;10210;52.284;9.892;2023-12-07T01:29:20;100720.00;;;6.80
20103;BMP180;10210;52.284;9.892;2023-12-07T01:31:46;100726.00;;;6.80
20103;BMP180;10210;52.284;9.892;2023-12-07T01:34:12;100711.00;;;6.80
20103;BMP180;10210;52.284;9.892;2023-12-07T01:36:38;100721.00;;;6.80
20103;BMP180;10210;52.284;9.892;2023-12-07T01:39:03;100722.00;;;6.80
20103;BMP180;10210;52.284;9.892;2023-12-07T01:41:30;100735.00;;;6.80
20103;BMP180;10210;52.284;9.892;2023-12-07T01:43:56;100729.00;;;6.90
20103;BMP180;10210;52.284;9.892;2023-12-07T01:46:22;100733.00;;;6.90
20103;BMP180;10210;52.284;9.892;2023-12-07T01:48:48;100735.00;;;6.90
20103;BMP180;10210;52.284;9.892;2023-12-07T01:51:16;100734.00;;;6.90
20103;BMP180;10210;52.284;9.892;2023-12-07T01:53:44;100734.00;;;6.90
20103;BMP180;10210;52.284;9.892;2023-12-07T01:56:11;100735.00;;;6.90
20103;BMP180;10210;52.284;9.892;2023-12-07T01:58:37;100733.00;;;7.00
20103;BMP180;10210;52.284;9.892;2023-12-07T02:01:03;100731.00;;;7.00
20103;BMP180;10210;52.284;9.892;2023-12-07T02:03:31;100734.00;;;7.00
20103;BMP180;10210;52.284;9.892;2023-12-07T02:05:58;100743.00;;;7.00
20103;BMP180;10210;52.284;9.892;2023-12-07T02:08:24;100735.00;;;7.00
20103;BMP180;10210;52.284;9.892;2023-12-07T02:10:50;100745.00;;;7.00
20103;BMP180;10210;52.284;9.892;2023-12-07T02:13:19;100745.00;;;7.00
20103;BMP180;10210;52.284;9.892;2023-12-07T02:15:46;100747.00;;;7.00
20103;BMP180;10210;52.284;9.892;2023-12-07T02:18:56;100741.00;;;7.00
20103;BMP180;10210;52.284;9.892;2023-12-07T02:21:53;100743.00;;;7.00
20103;BMP180;10210;52.284;9.892;2023-12-07T02:24:22;100745.00;;;7.00
20103;BMP180;10210;52.284;9.892;2023-12-07T02:26:50;100753.00;;;7.00
20103;BMP180;10210;52.284;9.892;2023-12-07T02:29:20;100751.00;;;7.00
20103;BMP180;10210;52.284;9.892;2023-12-07T02:31:46;100745.00;;;7.00
20103;BMP180;10210;52.284;9.892;2023-12-07T02:34:12;100741.00;;;7.00
20103;BMP180;10210;52.284;9.892;2023-12-07T02:36:39;100752.00;;;7.00
20103;BMP180;10210;52.284;9.892;2023-12-07T02:39:07;100753.00;;;7.00
20103;BMP180;10210;52.284;9.892;2023-12-07T02:41:36;100751.00;;;7.00
20103;BMP180;10210;52.284;9.892;2023-12-07T02:44:02;100764.00;;;7.00
20103;BMP180;10210;52.284;9.892;2023-12-07T02:46:29;100751.00;;;7.00
20103;BMP180;10210;52.284;9.892;2023-12-07T02:48:54;100758.00;;;7.00
20103;BMP180;10210;52.284;9.892;2023-12-07T02:51:22;100759.00;;;7.00
20103;BMP180;10210;52.284;9.892;2023-12-07T02:53:47;100760.00;;;7.00
20103;BMP180;10210;52.284;9.892;2023-12-07T02:56:14;100757.00;;;7.00
20103;BMP180;10210;52.284;9.892;2023-12-07T02:58:40;100750.00;;;7.10
20103;BMP180;10210;52.284;9.892;2023-12-07T03:01:06;100750.00;;;7.10
20103;BMP180;10210;52.284;9.892;2023-12-07T03:03:31;100749.00;;;7.10
20103;BMP180;10210;52.284;9.892;2023-12-07T03:05:57;100761.00;;;7.20
20103;BMP180;10210;52.284;9.892;2023-12-07T03:08:23;100754.00;;;7.20
20103;BMP180;10210;52.284;9.892;2023-12-07T03:10:48;100759.00;;;7.20
20103;BMP180;10210;52.284;9.892;2023-12-07T03:13:14;100757.00;;;7.20
20103;BMP180;10210;52.284;9.892;2023-12-07T03:15:41;100765.00;;;7.20
20103;BMP180;10210;52.284;9.892;2023-12-07T03:18:06;100767.00;;;7.30
20103;BMP180;10210;52.284;9.892;2023-12-07T03:20:33;100770.00;;;7.30
20103;BMP180;10210;52.284;9.892;2023-12-07T03:22:59;100765.00;;;7.30
20103;BMP180;10210;52.284;9.892;2023-12-07T03:25:25;100773.00;;;7.30
20103;BMP180;10210;52.284;9.892;2023-12-07T03:27:50;100768.00;;;7.30
20103;BMP180;10210;52.284;9.892;2023-12-07T03:30:17;100764.00;;;7.30
20103;BMP180;10210;52.284;9.892;2023-12-07T03:32:43;100767.00;;;7.20
20103;BMP180;10210;52.284;9.892;2023-12-07T03:35:08;100765.00;;;7.10
20103;BMP180;10210;52.284;9.892;2023-12-07T03:37:34;100776.00;;;7.10
20103;BMP180;10210;52.284;9.892;2023-12-07T03:40:00;100770.00;;;7.10
20103;BMP180;10210;52.284;9.892;2023-12-07T03:42:25;100785.00;;;7.10
20103;BMP180;10210;52.284;9.892;2023-12-07T03:44:51;100782.00;;;7.10
20103;BMP180;10210;52.284;9.892;2023-12-07T03:47:17;100777.00;;;7.10
20103;BMP180;10210;52.284;9.892;2023-12-07T03:49:44;100782.00;;;7.10
20103;BMP180;10210;52.284;9.892;2023-12-07T03:52:10;100781.00;;;7.10
20103;BMP180;10210;52.284;9.892;2023-12-07T03:54:35;100781.00;;;7.10
20103;BMP180;10210;52.284;9.892;2023-12-07T03:57:03;100789.00;;;7.20
20103;BMP180;10210;52.284;9.892;2023-12-07T03:59:29;100787.00;;;7.20
20103;BMP180;10210;52.284;9.892;2023-12-07T04:01:54;100799.00;;;7.20
20103;BMP180;10210;52.284;9.892;2023-12-07T04:04:21;100796.00;;;7.20
20103;BMP180;10210;52.284;9.892;2023-12-07T04:06:47;100798.00;;;7.10
20103;BMP180;10210;52.284;9.892;2023-12-07T04:09:14;100797.00;;;7.10
20103;BMP180;10210;52.284;9.892;2023-12-07T04:11:40;100798.00;;;7.10
20103;BMP180;10210;52.284;9.892;2023-12-07T04:14:06;100805.00;;;7.10
20103;BMP180;10210;52.284;9.892;2023-12-07T04:16:31;100800.00;;;7.10
20103;BMP180;10210;52.284;9.892;2023-12-07T04:18:57;100803.00;;;7.10
20103;BMP180;10210;52.284;9.892;2023-12-07T04:21:23;100804.00;;;7.10
20103;BMP180;10210;52.284;9.892;2023-12-07T04:23:49;100806.00;;;7.10
20103;BMP180;10210;52.284;9.892;2023-12-07T04:26:17;100802.00;;;7.10
20103;BMP180;10210;52.284;9.892;2023-12-07T04:28:43;100813.00;;;7.10
20103;BMP180;10210;52.284;9.892;2023-12-07T04:31:08;100804.00;;;7.10
20103;BMP180;10210;52.284;9.892;2023-12-07T04:33:34;100803.00;;;7.10
20103;BMP180;10210;52.284;9.892;2023-12-07T04:35:59;100796.00;;;7.10
20103;BMP180;10210;52.284;9.892;2023-12-07T04:38:25;100801.00;;;7.10
20103;BMP180;10210;52.284;9.892;2023-12-07T04:40:51;100810.00;;;7.10
20103;BMP180;10210;52.284;9.892;2023-12-07T04:43:17;100806.00;;;7.10
20103;BMP180;10210;52.284;9.892;2023-12-07T04:45:42;100815.00;;;7.10
20103;BMP180;10210;52.284;9.892;2023-12-07T04:48:08;100813.00;;;7.10
20103;BMP180;10210;52.284;9.892;2023-12-07T04:50:34;100811.00;;;7.10
20103;BMP180;10210;52.284;9.892;2023-12-07T04:52:59;100815.00;;;7.10
20103;BMP180;10210;52.284;9.892;2023-12-07T04:55:25;100807.00;;;7.10
20103;BMP180;10210;52.284;9.892;2023-12-07T04:57:51;100803.00;;;7.10
20103;BMP180;10210;52.284;9.892;2023-12-07T05:00:18;100815.00;;;7.10
20103;BMP180;10210;52.284;9.892;2023-12-07T05:02:43;100807.00;;;7.10
20103;BMP180;10210;52.284;9.892;2023-12-07T05:05:09;100817.00;;;7.10
20103;BMP180;10210;52.284;9.892;2023-12-07T05:07:35;100813.00;;;7.20
20103;BMP180;10210;52.284;9.892;2023-12-07T05:10:00;100811.00;;;7.10
20103;BMP180;10210;52.284;9.892;2023-12-07T05:12:27;100812.00;;;7.10
20103;BMP180;10210;52.284;9.892;2023-12-07T05:14:53;100806.00;;;7.10
20103;BMP180;10210;52.284;9.892;2023-12-07T05:17:19;100809.00;;;7.10
20103;BMP180;10210;52.284;9.892;2023-12-07T05:19:44;100818.00;;;7.10
20103;BMP180;10210;52.284;9.892;2023-12-07T05:22:10;100819.00;;;7.10
20103;BMP180;10210;52.284;9.892;2023-12-07T05:24:36;100819.00;;;7.10
20103;BMP180;10210;52.284;9.892;2023-12-07T05:27:02;100814.00;;;7.10
20103;BMP180;10210;52.284;9.892;2023-12-07T05:29:29;100820.00;;;7.10
20103;BMP180;10210;52.284;9.892;2023-12-07T05:31:55;100818.00;;;7.10
20103;BMP180;10210;52.284;9.892;2023-12-07T05:34:20;100823.00;;;7.10
20103;BMP180;10210;52.284;9.892;2023-12-07T05:36:46;100818.00;;;7.10
20103;BMP180;10210;52.284;9.892;2023-12-07T05:39:12;100817.00;;;7.10
20103;BMP180;10210;52.284;9.892;2023-12-07T05:41:38;100810.00;;;7.10
20103;BMP180;10210;52.284;9.892;2023-12-07T05:44:04;100813.00;;;7.10
20103;BMP180;10210;52.284;9.892;2023-12-07T05:46:30;100814.00;;;7.10
20103;BMP180;10210;52.284;9.892;2023-12-07T05:48:56;100808.00;;;7.10
20103;BMP180;10210;52.284;9.892;2023-12-07T05:51:23;100817.00;;;7.10
20103;BMP180;10210;52.284;9.892;2023-12-07T05:53:49;100810.00;;;7.10
20103;BMP180;10210;52.284;9.892;2023-12-07T05:56:19;100821.00;;;7.10
20103;BMP180;10210;52.284;9.892;2023-12-07T05:58:46;100810.00;;;7.10
20103;BMP180;10210;52.284;9.892;2023-12-07T06:01:11;100815.00;;;7.10
20103;BMP180;10210;52.284;9.892;2023-12-07T06:03:37;100825.00;;;7.10
20103;BMP180;10210;52.284;9.892;2023-12-07T06:06:03;100819.00;;;7.10
20103;BMP180;10210;52.284;9.892;2023-12-07T06:08:29;100818.00;;;7.10
20103;BMP180;10210;52.284;9.892;2023-12-07T06:10:55;100825.00;;;7.10
20103;BMP180;10210;52.284;9.892;2023-12-07T06:13:20;100820.00;;;7.00
20103;BMP180;10210;52.284;9.892;2023-12-07T06:15:46;100816.00;;;7.00
20103;BMP180;10210;52.284;9.892;2023-12-07T06:18:12;100833.00;;;7.00
20103;BMP180;10210;52.284;9.892;2023-12-07T06:20:37;100831.00;;;7.10
20103;BMP180;10210;52.284;9.892;2023-12-07T06:23:03;100829.00;;;7.10
20103;BMP180;10210;52.284;9.892;2023-12-07T06:25:29;100832.00;;;7.10
20103;BMP180;10210;52.284;9.892;2023-12-07T06:27:55;100837.00;;;7.10
20103;BMP180;10210;52.284;9.892;2023-12-07T06:30:21;100846.00;;;7.10
20103;BMP180;10210;52.284;9.892;2023-12-07T06:32:47;100843.00;;;7.10
20103;BMP180;10210;52.284;9.892;2023-12-07T06:35:13;100838.00;;;7.10
20103;BMP180;10210;52.284;9.892;2023-12-07T06:37:39;100845.00;;;7.10
20103;BMP180;10210;52.284;9.892;2023-12-07T06:40:09;100849.00;;;7.10
20103;BMP180;10210;52.284;9.892;2023-12-07T06:42:35;100844.00;;;7.10
20103;BMP180;10210;52.284;9.892;2023-12-07T06:45:02;100848.00;;;7.10
20103;BMP180;10210;52.284;9.892;2023-12-07T06:47:28;100856.00;;;7.10
20103;BMP180;10210;52.284;9.892;2023-12-07T06:49:55;100858.00;;;7.10
20103;BMP180;10210;52.284;9.892;2023-12-07T06:52:24;100853.00;;;7.10
20103;BMP180;10210;52.284;9.892;2023-12-07T06:54:49;100856.00;;;7.10
20103;BMP180;10210;52.284;9.892;2023-12-07T06:57:15;100860.00;;;7.10
20103;BMP180;10210;52.284;9.892;2023-12-07T06:59:40;100865.00;;;7.10
20103;BMP180;10210;52.284;9.892;2023-12-07T07:02:06;100859.00;;;7.10
20103;BMP180;10210;52.284;9.892;2023-12-07T07:04:32;100860.00;;;7.10
20103;BMP180;10210;52.284;9.892;2023-12-07T07:06:58;100860.00;;;7.00
20103;BMP180;10210;52.284;9.892;2023-12-07T07:09:24;100861.00;;;7.00
20103;BMP180;10210;52.284;9.892;2023-12-07T07:11:50;100857.00;;;7.10
20103;BMP180;10210;52.284;9.892;2023-12-07T07:14:17;100877.00;;;7.10
20103;BMP180;10210;52.284;9.892;2023-12-07T07:16:43;100879.00;;;7.10
20103;BMP180;10210;52.284;9.892;2023-12-07T07:19:10;100870.00;;;7.10
20103;BMP180;10210;52.284;9.892;2023-12-07T07:21:36;100877.00;;;7.10
20103;BMP180;10210;52.284;9.892;2023-12-07T07:24:02;100869.00;;;7.10
20103;BMP180;10210;52.284;9.892;2023-12-07T07:26:27;100867.00;;;7.10
20103;BMP180;10210;52.284;9.892;2023-12-07T07:28:53;100874.00;;;7.10
20103;BMP180;10210;52.284;9.892;2023-12-07T07:31:19;100884.00;;;7.10
20103;BMP180;10210;52.284;9.892;2023-12-07T07:33:45;100866.00;;;7.20
20103;BMP180;10210;52.284;9.892;2023-12-07T07:36:16;100875.00;;;7.10
20103;BMP180;10210;52.284;9.892;2023-12-07T07:38:43;100881.00;;;7.10
20103;BMP180;10210;52.284;9.892;2023-12-07T07:41:10;100887.00;;;7.10
20103;BMP180;10210;52.284;9.892;2023-12-07T07:43:36;100895.00;;;7.10
20103;BMP180;10210;52.284;9.892;2023-12-07T07:46:03;100895.00;;;7.20
20103;BMP180;10210;52.284;9.892;2023-12-07T07:48:29;100898.00;;;7.20
20103;BMP180;10210;52.284;9.892;2023-12-07T07:50:55;100894.00;;;7.20
20103;BMP180;10210;52.284;9.892;2023-12-07T07:53:20;100898.00;;;7.20
20103;BMP180;10210;52.284;9.892;2023-12-07T07:55:46;100895.00;;;7.20
20103;BMP180;10210;52.284;9.892;2023-12-07T07:58:11;100900.00;;;7.20
20103;BMP180;10210;52.284;9.892;2023-12-07T08:00:37;100897.00;;;7.20
20103;BMP180;10210;52.284;9.892;2023-12-07T08:03:03;100901.00;;;7.10
20103;BMP180;10210;52.284;9.892;2023-12-07T08:05:28;100892.00;;;7.10
20103;BMP180;10210;52.284;9.892;2023-12-07T08:07:54;100899.00;;;7.10
20103;BMP180;10210;52.284;9.892;2023-12-07T08:10:21;100900.00;;;7.10
20103;BMP180;10210;52.284;9.892;2023-12-07T08:12:47;100907.00;;;7.10
20103;BMP180;10210;52.284;9.892;2023-12-07T08:15:13;100907.00;;;7.10
20103;BMP180;10210;52.284;9.892;2023-12-07T08:17:41;100910.00;;;7.10
20103;BMP180;10210;52.284;9.892;2023-12-07T08:20:11;100906.00;;;7.10
20103;BMP180;10210;52.284;9.892;2023-12-07T08:22:38;100919.00;;;7.10
20103;BMP180;10210;52.284;9.892;2023-12-07T08:25:04;100908.00;;;7.10
20103;BMP180;10210;52.284;9.892;2023-12-07T08:27:36;100915.00;;;7.10
20103;BMP180;10210;52.284;9.892;2023-12-07T08:30:03;100907.00;;;7.10
20103;BMP180;10210;52.284;9.892;2023-12-07T08:32:29;100913.00;;;7.10
20103;BMP180;10210;52.284;9.892;2023-12-07T08:34:56;100910.00;;;7.10
20103;BMP180;10210;52.284;9.892;2023-12-07T08:37:22;100914.00;;;7.10
20103;BMP180;10210;52.284;9.892;2023-12-07T08:39:47;100911.00;;;7.10
20103;BMP180;10210;52.284;9.892;2023-12-07T08:42:13;100907.00;;;7.20
20103;BMP180;10210;52.284;9.892;2023-12-07T08:44:39;100896.00;;;7.20
20103;BMP180;10210;52.284;9.892;2023-12-07T08:47:05;100922.00;;;7.20
20103;BMP180;10210;52.284;9.892;2023-12-07T08:49:31;100920.00;;;7.20
20103;BMP180;10210;52.284;9.892;2023-12-07T08:51:58;100913.00;;;7.20
20103;BMP180;10210;52.284;9.892;2023-12-07T08:54:24;100911.00;;;7.30
20103;BMP180;10210;52.284;9.892;2023-12-07T08:56:50;100917.00;;;7.30
20103;BMP180;10210;52.284;9.892;2023-12-07T08:59:17;100922.00;;;7.30
20103;BMP180;10210;52.284;9.892;2023-12-07T09:01:43;100921.00;;;7.30
20103;BMP180;10210;52.284;9.892;2023-12-07T09:04:09;100927.00;;;7.30
20103;BMP180;10210;52.284;9.892;2023-12-07T09:06:36;100928.00;;;7.30
20103;BMP180;10210;52.284;9.892;2023-12-07T09:09:03;100928.00;;;7.40
20103;BMP180;10210;52.284;9.892;2023-12-07T09:11:30;100923.00;;;7.40
20103;BMP180;10210;52.284;9.892;2023-12-07T09:13:56;100924.00;;;7.40
20103;BMP180;10210;52.284;9.892;2023-12-07T09:16:21;100928.00;;;7.40
20103;BMP180;10210;52.284;9.892;2023-12-07T09:18:47;100937.00;;;7.40
20103;BMP180;10210;52.284;9.892;2023-12-07T09:21:13;100928.00;;;7.40
20103;BMP180;10210;52.284;9.892;2023-12-07T09:23:38;100931.00;;;7.40
20103;BMP180;10210;52.284;9.892;2023-12-07T09:26:04;100930.00;;;7.40
20103;BMP180;10210;52.284;9.892;2023-12-07T09:28:31;100935.00;;;7.40
20103;BMP180;10210;52.284;9.892;2023-12-07T09:30:58;100942.00;;;7.40
20103;BMP180;10210;52.284;9.892;2023-12-07T09:33:24;100937.00;;;7.40
20103;BMP180;10210;52.284;9.892;2023-12-07T09:35:50;100938.00;;;7.40
20103;BMP180;10210;52.284;9.892;2023-12-07T09:38:17;100952.00;;;7.50
20103;BMP180;10210;52.284;9.892;2023-12-07T09:40:43;100940.00;;;7.40
20103;BMP180;10210;52.284;9.892;2023-12-07T09:43:09;100947.00;;;7.40
20103;BMP180;10210;52.284;9.892;2023-12-07T09:45:34;100956.00;;;7.40
20103;BMP180;10210;52.284;9.892;2023-12-07T09:48:00;100948.00;;;7.50
20103;BMP180;10210;52.284;9.892;2023-12-07T09:50:27;100945.00;;;7.50
20103;BMP180;10210;52.284;9.892;2023-12-07T09:52:58;100936.00;;;7.50
20103;BMP180;10210;52.284;9.892;2023-12-07T09:55:27;100934.00;;;7.50
20103;BMP180;10210;52.284;9.892;2023-12-07T09:57:52;100953.00;;;7.50
20103;BMP180;10210;52.284;9.892;2023-12-07T10:00:22;100946.00;;;7.50
20103;BMP180;10210;52.284;9.892;2023-12-07T10:02:48;100938.00;;;7.50
20103;BMP180;10210;52.284;9.892;2023-12-07T10:05:15;100937.00;;;7.50
20103;BMP180;10210;52.284;9.892;2023-12-07T10:07:48;100925.00;;;7.50
20103;BMP180;10210;52.284;9.892;2023-12-07T10:10:16;100931.00;;;7.50
20103;BMP180;10210;52.284;9.892;2023-12-07T10:12:59;100927.00;;;7.50
20103;BMP180;10210;52.284;9.892;2023-12-07T10:15:25;100930.00;;;7.50
20103;BMP180;10210;52.284;9.892;2023-12-07T10:17:59;100931.00;;;7.50
20103;BMP180;10210;52.284;9.892;2023-12-07T10:20:27;100940.00;;;7.50
20103;BMP180;10210;52.284;9.892;2023-12-07T10:23:09;100931.00;;;7.50
20103;BMP180;10210;52.284;9.892;2023-12-07T10:25:41;100926.00;;;7.50
20103;BMP180;10210;52.284;9.892;2023-12-07T10:28:10;100932.00;;;7.50
20103;BMP180;10210;52.284;9.892;2023-12-07T10:30:42;100924.00;;;7.50
20103;BMP180;10210;52.284;9.892;2023-12-07T10:33:10;100931.00;;;7.50
20103;BMP180;10210;52.284;9.892;2023-12-07T10:35:42;100930.00;;;7.50
20103;BMP180;10210;52.284;9.892;2023-12-07T10:38:09;100932.00;;;7.60
20103;BMP180;10210;52.284;9.892;2023-12-07T10:40:35;100922.00;;;7.60
20103;BMP180;10210;52.284;9.892;2023-12-07T10:43:08;100924.00;;;7.60
20103;BMP180;10210;52.284;9.892;2023-12-07T10:45:35;100920.00;;;7.60
20103;BMP180;10210;52.284;9.892;2023-12-07T10:48:08;100909.00;;;7.60
20103;BMP180;10210;52.284;9.892;2023-12-07T10:50:42;100916.00;;;7.60
20103;BMP180;10210;52.284;9.892;2023-12-07T10:53:21;100909.00;;;7.60
20103;BMP180;10210;52.284;9.892;2023-12-07T10:55:56;100897.00;;;7.60
20103;BMP180;10210;52.284;9.892;2023-12-07T10:58:25;100902.00;;;7.60
20103;BMP180;10210;52.284;9.892;2023-12-07T11:00:53;100901.00;;;7.60
20103;BMP180;10210;52.284;9.892;2023-12-07T11:03:20;100901.00;;;7.60
20103;BMP180;10210;52.284;9.892;2023-12-07T11:05:50;100901.00;;;7.70
20103;BMP180;10210;52.284;9.892;2023-12-07T11:08:46;100895.00;;;7.60
20103;BMP180;10210;52.284;9.892;2023-12-07T11:11:21;100892.00;;;7.60
20103;BMP180;10210;52.284;9.892;2023-12-07T11:14:03;100901.00;;;7.60
20103;BMP180;10210;52.284;9.892;2023-12-07T11:16:36;100894.00;;;7.70
20103;BMP180;10210;52.284;9.892;2023-12-07T11:19:03;100889.00;;;7.70
20103;BMP180;10210;52.284;9.892;2023-12-07T11:21:30;100900.00;;;7.70
20103;BMP180;10210;52.284;9.892;2023-12-07T11:24:00;100900.00;;;7.70
20103;BMP180;10210;52.284;9.892;2023-12-07T11:26:29;100886.00;;;7.70
20103;BMP180;10210;52.284;9.892;2023-12-07T11:28:55;100886.00;;;7.70
20103;BMP180;10210;52.284;9.892;2023-12-07T11:31:22;100898.00;;;7.70
20103;BMP180;10210;52.284;9.892;2023-12-07T11:33:48;100888.00;;;7.70
20103;BMP180;10210;52.284;9.892;2023-12-07T11:36:14;100876.00;;;7.80
20103;BMP180;10210;52.284;9.892;2023-12-07T11:41:44;100882.00;;;7.70
20103;BMP180;10210;52.284;9.892;2023-12-07T11:44:11;100877.00;;;7.80
20103;BMP180;10210;52.284;9.892;2023-12-07T11:46:40;100877.00;;;7.80
20103;BMP180;10210;52.284;9.892;2023-12-07T11:49:06;100879.00;;;7.80
20103;BMP180;10210;52.284;9.892;2023-12-07T11:51:36;100870.00;;;7.80
20103;BMP180;10210;52.284;9.892;2023-12-07T11:54:01;100869.00;;;7.80
20103;BMP180;10210;52.284;9.892;2023-12-07T11:56:27;100878.00;;;7.80
20103;BMP180;10210;52.284;9.892;2023-12-07T11:58:53;100871.00;;;7.80
20103;BMP180;10210;52.284;9.892;2023-12-07T12:01:18;100877.00;;;7.90
20103;BMP180;10210;52.284;9.892;2023-12-07T12:03:44;100881.00;;;7.90
20103;BMP180;10210;52.284;9.892;2023-12-07T12:06:10;100881.00;;;7.90
20103;BMP180;10210;52.284;9.892;2023-12-07T12:08:38;100870.00;;;7.90
20103;BMP180;10210;52.284;9.892;2023-12-07T12:11:04;100875.00;;;7.90
20103;BMP180;10210;52.284;9.892;2023-12-07T12:13:36;100880.00;;;7.90
20103;BMP180;10210;52.284;9.892;2023-12-07T12:16:03;100868.00;;;7.90
20103;BMP180;10210;52.284;9.892;2023-12-07T12:18:29;100860.00;;;8.00
20103;BMP180;10210;52.284;9.892;2023-12-07T12:20:55;100865.00;;;8.00
20103;BMP180;10210;52.284;9.892;2023-12-07T12:23:21;100867.00;;;8.00
20103;BMP180;10210;52.284;9.892;2023-12-07T12:25:47;100857.00;;;8.00
20103;BMP180;10210;52.284;9.892;2023-12-07T12:28:18;100851.00;;;7.90
20103;BMP180;10210;52.284;9.892;2023-12-07T12:30:47;100848.00;;;7.90
20103;BMP180;10210;52.284;9.892;2023-12-07T12:33:13;100845.00;;;7.90
20103;BMP180;10210;52.284;9.892;2023-12-07T12:35:40;100836.00;;;7.90
20103;BMP180;10210;52.284;9.892;2023-12-07T12:38:10;100849.00;;;8.00
20103;BMP180;10210;52.284;9.892;2023-12-07T12:40:37;100848.00;;;8.00
20103;BMP180;10210;52.284;9.892;2023-12-07T12:43:04;100838.00;;;8.00
20103;BMP180;10210;52.284;9.892;2023-12-07T12:45:30;100847.00;;;8.10
20103;BMP180;10210;52.284;9.892;2023-12-07T12:47:56;100833.00;;;8.10
20103;BMP180;10210;52.284;9.892;2023-12-07T12:50:39;100834.00;;;8.10
20103;BMP180;10210;52.284;9.892;2023-12-07T12:53:08;100832.00;;;8.10
20103;BMP180;10210;52.284;9.892;2023-12-07T12:55:37;100844.00;;;8.10
20103;BMP180;10210;52.284;9.892;2023-12-07T12:58:06;100838.00;;;8.10
20103;BMP180;10210;52.284;9.892;2023-12-07T13:00:33;100826.00;;;8.10
20103;BMP180;10210;52.284;9.892;2023-12-07T13:03:04;100824.00;;;8.10
20103;BMP180;10210;52.284;9.892;2023-12-07T13:05:30;100828.00;;;8.10
20103;BMP180;10210;52.284;9.892;2023-12-07T13:07:58;100828.00;;;8.20
20103;BMP180;10210;52.284;9.892;2023-12-07T13:10:26;100829.00;;;8.20
20103;BMP180;10210;52.284;9.892;2023-12-07T13:12:52;100817.00;;;8.20
20103;BMP180;10210;52.284;9.892;2023-12-07T13:15:18;100824.00;;;8.20
20103;BMP180;10210;52.284;9.892;2023-12-07T13:17:44;100818.00;;;8.20
20103;BMP180;10210;52.284;9.892;2023-12-07T13:20:11;100808.00;;;8.20
20103;BMP180;10210;52.284;9.892;2023-12-07T13:22:38;100820.00;;;8.20
20103;BMP180;10210;52.284;9.892;2023-12-07T13:25:05;100815.00;;;8.20
20103;BMP180;10210;52.284;9.892;2023-12-07T13:27:36;100821.00;;;8.20
20103;BMP180;10210;52.284;9.892;2023-12-07T13:30:03;100817.00;;;8.20
20103;BMP180;10210;52.284;9.892;2023-12-07T13:32:35;100808.00;;;8.20
20103;BMP180;10210;52.284;9.892;2023-12-07T13:35:04;100817.00;;;8.20
20103;BMP180;10210;52.284;9.892;2023-12-07T13:37:30;100811.00;;;8.30
20103;BMP180;10210;52.284;9.892;2023-12-07T13:39:56;100811.00;;;8.30
20103;BMP180;10210;52.284;9.892;2023-12-07T13:42:24;100800.00;;;8.30
20103;BMP180;10210;52.284;9.892;2023-12-07T13:44:56;100797.00;;;8.30
20103;BMP180;10210;52.284;9.892;2023-12-07T13:47:24;100800.00;;;8.30
20103;BMP180;10210;52.284;9.892;2023-12-07T13:49:55;100793.00;;;8.30
20103;BMP180;10210;52.284;9.892;2023-12-07T13:52:25;100787.00;;;8.30
20103;BMP180;10210;52.284;9.892;2023-12-07T13:54:51;100782.00;;;8.20
20103;BMP180;10210;52.284;9.892;2023-12-07T13:57:21;100782.00;;;8.20
20103;BMP180;10210;52.284;9.892;2023-12-07T13:59:47;100766.00;;;8.20
20103;BMP180;10210;52.284;9.892;2023-12-07T14:02:13;100780.00;;;8.20
20103;BMP180;10210;52.284;9.892;2023-12-07T14:04:39;100783.00;;;8.30
20103;BMP180;10210;52.284;9.892;2023-12-07T14:07:13;100773.00;;;8.30
20103;BMP180;10210;52.284;9.892;2023-12-07T14:09:42;100790.00;;;8.40
20103;BMP180;10210;52.284;9.892;2023-12-07T14:12:09;100778.00;;;8.40